Time;durP1;ratioP1;P1;durP2;ratioP2;P2;SDS_P1;SDS_P2;PMS_P1;PMS_P2;Temp;Humidity;BMP_temperature;BMP_pressure;BME280_temperature;BME280_humidity;BME280_pressure;Samples;Min_cycle;Max_cycle;Signal;HPM_P1;HPM_P2
2023/08/05 18:09:54;;;;;;;;;;;27.50;80.90;;;;;;5138037;27;19999;-93
2023/08/05 18:12:20;;;;;;;;;;;28.50;82.60;;;;;;5140625;27;20280;-95
2023/08/05 18:14:46;;;;;;;;;;;28.50;82.70;;;;;;5124122;28;19908;-94
2023/08/05 18:17:13;;;;;;;;;;;28.50;83.00;;;;;;5115969;28;20364;-95
2023/08/05 18:19:39;;;;;;;;;;;28.40;83.20;;;;;;5120126;28;19892;-96
2023/08/05 18:22:08;;;;;;;;;;;28.30;83.50;;;;;;5125726;27;20204;-95
2023/08/05 18:24:33;;;;;;;;;;;28.30;83.80;;;;;;5120240;28;19907;-94
2023/08/05 18:27:02;;;;;;;;;;;28.20;84.20;;;;;;5179111;22;19913;-94
2023/08/05 18:29:27;;;;;;;;;;;28.20;84.60;;;;;;5053063;28;20126;-94
2023/08/05 18:31:53;;;;;;;;;;;28.10;84.70;;;;;;5068061;28;20011;-94
2023/08/05 18:34:20;;;;;;;;;;;28.10;84.90;;;;;;5070774;28;19923;-93
2023/08/05 18:36:48;;;;;;;;;;;28.10;84.90;;;;;;5061459;28;19920;-95
2023/08/05 18:39:16;;;;;;;;;;;28.10;84.90;;;;;;5041065;28;19917;-95
2023/08/05 18:41:42;;;;;;;;;;;28.10;84.80;;;;;;5046265;28;19893;-95
2023/08/05 18:44:07;;;;;;;;;;;28.00;84.60;;;;;;5063008;28;19920;-95
2023/08/05 18:49:06;;;;;;;;;;;28.00;84.60;;;;;;5078383;28;19925;-94
2023/08/05 18:51:33;;;;;;;;;;;28.00;84.80;;;;;;5190726;22;19931;-95
2023/08/05 18:53:58;;;;;;;;;;;28.00;85.20;;;;;;5081761;28;20003;-95
2023/08/05 18:58:57;;;;;;;;;;;28.00;86.80;;;;;;5120437;28;20356;-96
2023/08/05 19:01:22;;;;;;;;;;;28.00;87.00;;;;;;5185997;22;19976;-96
2023/08/05 19:03:49;;;;;;;;;;;27.90;87.50;;;;;;5106601;28;19913;-95
2023/08/05 19:06:16;;;;;;;;;;;27.90;87.70;;;;;;5105622;28;19930;-95
2023/08/05 19:08:51;;;;;;;;;;;27.90;88.00;;;;;;5103977;28;20418;-95
2023/08/05 19:11:17;;;;;;;;;;;27.80;88.90;;;;;;5101283;28;19917;-94
2023/08/05 19:13:59;;;;;;;;;;;27.80;88.60;;;;;;5104522;28;20010;-95
2023/08/05 19:16:26;;;;;;;;;;;27.80;89.20;;;;;;5102651;28;19919;-95
2023/08/05 19:18:52;;;;;;;;;;;27.70;90.00;;;;;;5101316;28;19999;-95
2023/08/05 19:21:17;;;;;;;;;;;27.70;90.30;;;;;;5198619;22;19940;-94
2023/08/05 19:23:57;;;;;;;;;;;27.70;90.40;;;;;;5058011;28;19900;-95
2023/08/05 19:28:59;;;;;;;;;;;27.60;90.80;;;;;;5088381;28;19925;-95
2023/08/05 19:31:48;;;;;;;;;;;27.60;90.90;;;;;;5096381;28;19917;-95
2023/08/05 19:34:14;;;;;;;;;;;27.60;91.10;;;;;;5069501;28;19947;-95
2023/08/05 19:36:39;;;;;;;;;;;27.50;91.20;;;;;;5070720;28;19917;-95
2023/08/05 19:41:41;;;;;;;;;;;27.50;91.60;;;;;;5206021;22;19925;-95
2023/08/05 19:44:07;;;;;;;;;;;27.40;91.60;;;;;;5092807;28;19912;-95
2023/08/05 19:46:33;;;;;;;;;;;27.40;92.00;;;;;;5090466;28;20410;-94
2023/08/05 19:48:59;;;;;;;;;;;27.40;92.40;;;;;;5078751;28;19962;-96
2023/08/05 19:51:26;;;;;;;;;;;27.40;92.50;;;;;;5087608;28;19912;-94
2023/08/05 19:53:51;;;;;;;;;;;27.40;92.80;;;;;;5079144;28;19908;-95
2023/08/05 19:56:17;;;;;;;;;;;27.40;92.90;;;;;;5166070;22;20384;-95
2023/08/05 19:58:42;;;;;;;;;;;27.40;93.00;;;;;;5068017;28;19903;-95
2023/08/05 20:01:10;;;;;;;;;;;27.50;93.10;;;;;;5067071;28;19943;-93
